Home > Products > Valid Products > TAF

000
FTUS44 KEPZ 240532
TAFTCS
TAF
KTCS 240532Z 2406/2506 29006KT P6SM SKC
     FM241600 21016G24KT P6SM SKC
     FM250400 28010KT P6SM SKC=



000
FTUS44 KEPZ 240532
TAFELP
TAF
KELP 240532Z 2406/2506 25016KT P6SM SKC
     FM240900 25012KT P6SM SKC
     FM241600 24018G25KT P6SM SCT250=



000
FTUS44 KEPZ 240532
TAFDMN
TAF
KDMN 240532Z 2406/2506 26006KT P6SM SKC
     FM241600 25015G22KT P6SM SKC
     FM250300 25012KT P6SM SKC=



000
FTUS44 KEPZ 231130
TAFTCS
TAF
KTCS 231130Z 2312/2412 29005KT P6SM SCT130 SCT250
     FM231700 25016G26KT P6SM FEW130 SCT250
     FM240200 28008KT P6SM FEW130 SCT250=



000
FTUS44 KEPZ 231130
TAFELP
TAF
KELP 231130Z 2312/2412 22007KT P6SM FEW140 SCT250
     FM231600 25015G25KT P6SM FEW140 SCT250
     FM240300 27009KT P6SM FEW150 SCT250=



000
FTUS44 KEPZ 231130
TAFDMN
TAF
KDMN 231130Z 2312/2412 26008KT P6SM SCT130 SCT250
     FM231600 25017G27KT P6SM FEW130 SCT250
     FM240300 25009KT P6SM FEW130 SCT250=



000
FTUS44 KEPZ 230520
TAFDMN
TAF
KDMN 230520Z 2306/2406 26010KT P6SM SCT130 SCT250
     FM231600 25017G27KT P6SM FEW130 SCT250
     FM240300 25009KT P6SM FEW130 SCT250=



000
FTUS44 KEPZ 230520
TAFELP
TAF
KELP 230520Z 2306/2406 24013G23KT P6SM FEW140 SCT250
     FM230800 26010KT P6SM FEW140 SCT250
     FM231600 25015G25KT P6SM FEW140 SCT250
     FM240300 27009KT P6SM FEW150 SCT250=



000
FTUS44 KEPZ 230520
TAFTCS
TAF
KTCS 230520Z 2306/2406 29009KT P6SM SCT130 SCT250
     FM231700 25016G26KT P6SM FEW130 SCT250
     FM240200 28008KT P6SM FEW130 SCT250=



000
FTUS44 KEPZ 220520
TAFELP
TAF
KELP 220520Z 2206/2306 26010KT P6SM FEW250
     FM221700 24017G27KT P6SM FEW100 SCT250
     FM230400 26010KT P6SM FEW100 SCT250=



000
FTUS44 KEPZ 220520
TAFDMN
TAF
KDMN 220520Z 2206/2306 26010KT P6SM FEW250
     FM221700 24015G25KT P6SM FEW100 SCT250
     FM230300 25009KT P6SM FEW100 SCT250=



000
FTUS44 KEPZ 220520
TAFTCS
TAF
KTCS 220520Z 2206/2306 26010KT P6SM FEW250
     FM221700 20015G25KT P6SM FEW090 FEW250
     FM230500 30007KT P6SM FEW090 FEW250=



000
FTUS44 KEPZ 212340
TAFELP
TAF
KELP 212340Z 2200/2224 24012G20KT P6SM FEW250
     FM220200 26010KT P6SM SCT200
     FM221700 24017G27KT P6SM FEW100 SCT250=



000
FTUS44 KEPZ 212340
TAFTCS
TAF
KTCS 212340Z 2200/2224 21015G25KT P6SM FEW250
     FM220300 26010KT P6SM SCT200
     FM221700 20015G25KT P6SM FEW090 FEW250=



000
FTUS44 KEPZ 212340
TAFDMN
TAF
KDMN 212340Z 2200/2224 22015G25KT P6SM FEW250
     FM220200 26010KT P6SM SCT200
     FM221700 24015G25KT P6SM FEW100 SCT200=



000
FTUS44 KEPZ 212151 AAA
TAFDMN
TAF AMD
KDMN 212151Z 2122/2218 22015G25KT P6SM FEW250
     FM220200 26010KT P6SM SCT200
     FM221700 24015G25KT P6SM FEW100 SCT200=



    US Dept of Commerce
    National Oceanic and Atmospheric Administration
    National Weather Service
    1325 East West Highway
    Silver Spring, MD 20910
    Page Author: NWS Internet Services Team
Disclaimer
Information Quality
Credits
Glossary
Privacy Policy
Freedom of Information Act (FOIA)
About Us
Career Opportunities